Matheus Queiroz

Recruteur en chef - Ceará
20 Nov 2027
Samedi
Processus

Personnalité

Adaptabilité (15) Ambition (12) Controverse (11) Loyauté (20) Pression (11) Professionnalisme (9) Sportivité (6) Tempérament (18)

Profil

Style d'entraînement Démocratique
Diplôme National A
Détermination 8
Gestion des joueurs 12
Motivation 5
Discipline 5
Satisfaction professionnelle
85%
Fatigue
0%
Rôle Recruteur en chef
Salaire 31.8K p/s
Contrat 14.03.2030

Performance

Comportement Bon
Efficacité de l'entraînement
40%
Développement des joueurs
55%
Prévention des blessures
40%
Mise en place tactique
55%

Événements récents

A recommandé une cible de transfert maintenant
A recommandé une cible de transfert maintenant
A recommandé une cible de transfert maintenant
A participé à une réunion de recrutement maintenant
A participé à une réunion de recrutement maintenant
A participé à une réunion de recrutement maintenant
A évalué un joueur maintenant
A évalué un joueur maintenant

Suivi en cours

213
Joueur Club Statut Capacité Confiance Observé Dernière observation Dernier vote
Celías Ingenthron Platense Actif 113 / 124 40% 2 19.11.2027 -
Honest Ahanor Atalanta Actif 147 / 134 40% 2 19.11.2027 -
Onuorah Onyedika Kun Khalifat Actif 80 / 87 40% 2 18.11.2027 -
Martim Ferreira Benfica Actif 98 / 112 40% 1 18.11.2027 -
Lodovico Felgueiras Actif 80 / 89 40% 2 17.11.2027 -
Hosea Michael Remo Stars Actif 100 / 101 40% 3 17.11.2027 -
Fillip Jenssen Riise Stabaek Actif 90 / 99 40% 1 16.11.2027 -
Sheriff Amuda Shooting Stars Actif 76 / 86 40% 1 16.11.2027 -
Kauã Moraes Cruzeiro Actif 129 / 126 40% 5 15.11.2027 -
Gonçalo Oliveira Benfica Actif 126 / 121 40% 1 15.11.2027 -
Aiden Hezarkhani Real Salt Lake Actif 106 / 91 40% 2 14.11.2027 -
Emmanuel Akpan Bendel Insurance Actif 72 / 99 40% 1 14.11.2027 -
Mateo Caballero Defensor Sporting Actif 108 / 110 40% 1 13.11.2027 -
Esquerdinha Oldham Athletic Actif 114 / 130 40% 2 12.11.2027 -
Souza Tottenham Actif 123 / 136 40% 5 11.11.2027 -
Luis Otávio Toronto FC Actif 99 / 109 40% 3 10.11.2027 -
Santino Baldassarri Quilmes Actif 82 / 92 40% 3 10.11.2027 -
Felipe Obradovich Gimnasia La Plata Actif 111 / 123 40% 2 08.11.2027 -
André Lucas Paris FC Actif 100 / 94 40% 1 08.11.2027 -
Uche Jaguar Kwara United Actif 89 / 91 40% 4 07.11.2027 -
Martim Cunha Porto Actif 110 / 116 40% 1 07.11.2027 -
Pablo Lúcio Farense Actif 117 / 118 40% 1 05.11.2027 -
Gideon Manaseh Ikorodu City Actif 97 / 91 40% 1 05.11.2027 -
Juan Camilo Córdoba Deportivo Pereira Actif 91 / 91 40% 2 02.11.2027 -
Toni Tamarit Alverca Actif 118 / 122 40% 3 31.10.2027 -
Sebastián Ramírez America de Cali Actif 99 / 114 40% 1 31.10.2027 -
Agustín Medina Lanús Actif 125 / 125 40% 3 30.10.2027 -
Kaick FC Dallas Actif 119 / 112 40% 1 27.10.2027 -
Braian Cabral Madryn Actif 98 / 96 40% 3 24.10.2027 -
Juan Manuel Villalba Boca Juniors Actif 112 / 126 40% 2 22.10.2027 -
Valente Pierani Boca Juniors Actif 110 / 118 40% 1 22.10.2027 -
Camilo Rey Domenech Racing Club Actif 117 / 132 40% 3 21.10.2027 -
Godwin Oham Warri Wolves Actif 80 / 96 40% 1 21.10.2027 -
Inti Borghetto Patronato Actif 93 / 91 40% 4 10.10.2027 -
Pablo Penafiel Actif 87 / 103 40% 1 09.10.2027 -
Joel Ezra Enyimba Actif 101 / 89 40% 1 09.10.2027 -
Vitor Reis Manchester City Actif 127 / 143 40% 1 07.10.2027 -
Dodô Almería Actif 86 / 94 40% 1 12.09.2027 -
Tiago Gordillo San Miguel Actif 96 / 93 40% 1 12.09.2027 -
Jackson Imbiakha Muranga Seal Actif 81 / 79 40% 1 06.09.2027 -
Giorgi Kvernadze Frosinone Actif 119 / 126 40% 3 07.06.2027 -
Malik Mothersille Stockport County Actif 119 / 106 40% 1 07.06.2027 -
Riquelme Thompson-Jones Shrewsbury Town Actif 89 / 118 40% 2 02.06.2027 -
Lucas Bergvall Tottenham Actif 135 / 146 40% 1 02.06.2027 -
José Paradela Cerro Porteno Actif 137 / 137 66% 1 01.06.2027 Approuver
Facundo Torres AIK Actif 134 / 134 67% 1 01.06.2027 Approuver
George Hirst Stoke City Actif 131 / 143 40% 4 31.05.2027 -
Tommy Conway Middlesbrough Actif 139 / 138 40% 2 31.05.2027 -
Harvey Blair Portsmouth Actif 110 / 111 40% 1 28.05.2027 -
Camilo Durán Bloemfontein Celtic Actif 120 / 117 40% 5 26.05.2027 -
Welington Southampton Actif 119 / 131 40% 3 25.05.2027 -
Lamine Cissé Peterborough United Actif 131 / 118 40% 7 25.05.2027 -
Jovon Makama Norwich City Actif 122 / 132 40% 1 25.05.2027 -
Patrick Agyemang Derby County Actif 120 / 121 40% 2 23.05.2027 -
Ali Ahmed Norwich City Actif 130 / 123 40% 1 23.05.2027 -
Thalys Almería Actif 123 / 124 40% 1 22.05.2027 -
Zeidane Inoussa Swansea City Actif 140 / 116 40% 1 22.05.2027 -
Elijah Adebayo Luton Town Actif 139 / 116 40% 3 21.05.2027 -
Santiago Pierotti Lecce Actif 122 / 127 40% 1 21.05.2027 -
Juan David Arizala Udinese Actif 124 / 125 40% 1 21.05.2027 -
Naïs Djouahra Arouca Actif 140 / 130 40% 5 18.05.2027 -
Milan van Ewijk Coventry City Actif 122 / 136 40% 2 18.05.2027 -
Ronald Swansea City Actif 142 / 120 40% 2 15.05.2027 -
Cian Ashford Cardiff City Actif 127 / 114 40% 1 15.05.2027 -
Loum Tchaouna Coventry City Actif 134 / 141 40% 1 14.05.2027 Plus d'infos
Chemsdine Talbi Sunderland Actif 155 / 137 40% 1 14.05.2027 Plus d'infos
Koki Saito Queens Park Rangers Actif 126 / 134 40% 4 13.05.2027 -
Jaydee Canvot Liverpool Actif 146 / 133 40% 1 13.05.2027 -
Jason Knight Bristol City Actif 115 / 137 40% 1 10.05.2027 -
Dávid Strelec Middlesbrough Actif 144 / 141 40% 3 08.05.2027 -
Oli McBurnie Hull City Actif 133 / 141 40% 1 07.05.2027 -
Juan Bezerra Zamalek Actif 112 / 131 40% 4 05.05.2027 -
Julio Enciso Ipswich Town Actif 152 / 139 40% 2 05.05.2027 -
Yousef Salech Cardiff City Actif 134 / 131 40% 1 05.05.2027 -
Kyle Wootton Stockport County Actif 136 / 129 40% 1 30.04.2027 -
Tyreece Campbell Charlton Athletic Actif 109 / 115 40% 2 29.04.2027 -
Mathias Jørgensen Blackburn Rovers Actif 122 / 121 40% 1 27.04.2027 -
Tyrese Campbell Sheffield United Actif 133 / 129 40% 1 22.04.2027 -
Zian Flemming Ipswich Town Actif 127 / 138 40% 1 21.04.2027 -
Savinho Tottenham Actif 162 / 162 40% 1 21.04.2027 -
Aaron Collins Milton Keynes Dons Actif 134 / 116 40% 1 19.04.2027 -
Finn Azaz Southampton Actif 145 / 127 40% 2 18.04.2027 -
Mihailo Ivanović Millwall Actif 113 / 133 40% 1 18.04.2027 -
Riley Owen Wycombe Wanderers Actif 91 / 113 40% 1 18.04.2027 -
Abraham Paintsil Hasaacas Actif 73 / 96 40% 1 18.04.2027 -
Caleb Yirenkyi Coventry City Actif 151 / 139 40% 1 13.04.2027 -
Lucas Pires Burnley Actif 137 / 124 40% 2 12.04.2027 -
Isaiah Jones Luton Town Actif 129 / 122 40% 1 12.04.2027 -
Relebohile Mofokeng Orlando Pirates Actif 136 / 129 40% 4 10.04.2027 -
Bakary Haïdara Hearts of Oak Actif 101 / 118 40% 1 09.04.2027 -
Erick Marcus Ludogorets Actif 131 / 129 40% 1 07.04.2027 -
Helinho Toluca Actif 122 / 135 40% 4 06.04.2027 -
Jeon Jin-Woo Sheffield Wednesday Actif 139 / 125 40% 1 04.04.2027 -
Tshepang Moremi Orlando Pirates Actif 115 / 105 40% 2 01.04.2027 -
Francisco Moura Penafiel Actif 130 / 132 40% 1 31.03.2027 -
Santi García Gil Vicente Actif 127 / 137 40% 7 29.03.2027 -
Cristian Ferreira Académico de Viseu Actif 125 / 126 40% 6 27.03.2027 -
Francis Amuzu Grêmio Actif 142 / 122 40% 1 27.03.2027 -
Pau Víctor Estrela da Amadora Actif 137 / 128 40% 6 25.03.2027 -
Luis Quintero Torreense Actif 132 / 117 40% 6 25.03.2027 -
Christian Krasnodar Actif 121 / 140 40% 5 22.03.2027 -
Christos Mouzakitis Hull City Actif 118 / 135 40% 2 19.03.2027 -
Larson Pacos de Ferreira Actif 101 / 109 40% 1 19.03.2027 -
MT Santa Clara Actif 110 / 122 40% 4 18.03.2027 -
De Lucca Adana Demirspor Actif 118 / 121 40% 4 18.03.2027 -
Nabil Touaizi Alverca Actif 108 / 117 40% 3 16.03.2027 -
Joaquin Seys Club Brugge Actif 138 / 125 40% 2 15.03.2027 -
Rodrigo Ramos Feirense Actif 125 / 114 40% 2 13.03.2027 -
Joelson Fernandes Gil Vicente Actif 132 / 129 40% 1 13.03.2027 -
Vinícius Lopes Santa Clara Actif 107 / 127 40% 3 11.03.2027 -
Korede Osundina Casa Pia Actif 112 / 120 40% 2 10.03.2027 -
Kahiser Lenis Feirense Actif 124 / 107 40% 3 09.03.2027 -
Enzo Loiodice KAA Gent Actif 119 / 131 40% 2 08.03.2027 -
Vasco Santos Oliveirense Actif 74 / 100 40% 1 08.03.2027 -
Matheus Dias Nacional Actif 112 / 116 40% 3 07.03.2027 -
Dinis Pinto Moreirense Actif 137 / 128 40% 1 07.03.2027 -
João Mendes Vitoria Guimaraes Actif 133 / 116 40% 2 05.03.2027 -
Tiago Freitas Benfica Actif 119 / 115 40% 1 03.03.2027 -
Rafik Guitane Estoril Praia Actif 147 / 128 40% 2 28.02.2027 -
Makan Aïko Tondela Actif 118 / 127 40% 1 27.02.2027 -
Gabriel Silva Braga Actif 127 / 125 40% 7 24.02.2027 -
Léo Pereira CSKA Sofia Actif 114 / 111 40% 2 18.02.2027 -
Nazar Voloshyn Dynamo Kyiv Actif 118 / 136 40% 1 17.02.2027 -
Gianluca Prestianni Benfica Actif 152 / 135 40% 1 14.02.2027 -
Rubens Dinamo Moscow Actif 135 / 126 40% 2 12.02.2027 -
Maicon Levski Actif 125 / 116 40% 1 05.02.2027 -
Manu Pozo Torreense Actif 121 / 129 40% 1 31.01.2027 -
Marquinhos Spartak Moscow Actif 127 / 124 40% 1 27.01.2027 -
Abraham Marcus Estrela da Amadora Actif 111 / 129 40% 3 24.01.2027 -
Pablo Solari Spartak Moscow Actif 146 / 122 40% 1 21.01.2027 -
Rodrigo Pinheiro Famalicao Actif 145 / 135 40% 1 21.01.2027 -
Pastor CSKA Sofia Actif 136 / 126 40% 1 19.01.2027 -
Ole Pohlmann Rio Ave Actif 126 / 120 40% 2 13.01.2027 -
Erick Pulga Bahia Actif 128 / 134 40% 1 13.01.2027 -
Esequiel Barco Spartak Moscow Actif 140 / 127 40% 1 10.01.2027 -
Luis Sinisterra Cruzeiro Actif 151 / 143 40% 1 10.01.2027 -
Rômulo Tigres Actif 115 / 121 40% 2 08.01.2027 -
Facundo Cáseres Gil Vicente Actif 125 / 118 40% 1 08.01.2027 -
Yanis Begraoui Estoril Praia Actif 122 / 126 40% 6 06.01.2027 -
Shaylon Mirassol Actif 125 / 131 58% 1 28.12.2026 -
Roberto Fernández Braga Actif 157 / 149 40% 4 14.12.2026 -
Dylan Nandín Arouca Actif 127 / 122 40% 1 14.12.2026 -
Matija Mitrović Vitoria Guimaraes Actif 115 / 129 40% 1 02.12.2026 -
Bastien Meupiyou Alverca Actif 126 / 135 40% 1 02.12.2026 -
Toni Fruk Valladolid Actif 132 / 133 66% 1 01.12.2026 Approuver
Rodrigo Castillo Fluminense Actif 120 / 123 40% 3 30.11.2026 -
Tamble Monteiro Rio Ave Actif 125 / 108 40% 4 30.11.2026 -
Arthur Gomes Dinamo Moscow Actif 122 / 120 40% 3 29.11.2026 -
Renato Kayser Vitória Actif 133 / 130 40% 1 29.11.2026 -
Marin Benko Zadar Actif 111 / 126 40% 1 28.11.2026 -
Gabriel Novaes Leixões Actif 97 / 115 40% 5 27.11.2026 -
Yuri Alberto Corinthians Actif 142 / 136 40% 5 27.11.2026 Observer
Dawda Camara Alverca Actif 118 / 119 40% 2 27.11.2026 -
Diber Cambindo Leon Actif 119 / 135 40% 1 24.11.2026 -
Negueba Mirassol Actif 129 / 119 40% 1 23.11.2026 -
Rumarn Burrell Queens Park Rangers Actif 132 / 124 40% 1 22.11.2026 -
Nathan Fogaça Fortaleza Actif 133 / 116 40% 2 18.11.2026 -
Arthur Cabral Botafogo Actif 118 / 128 40% 2 18.11.2026 -
Enzo Copetti Rosario Central Actif 118 / 127 40% 1 16.11.2026 -
Leandro Antonetti Estrela da Amadora Actif 100 / 97 40% 1 16.11.2026 -
David Barbona Defensa y Justicia Actif 116 / 126 40% 1 11.11.2026 -
João Klauss LA Galaxy Actif 136 / 118 40% 3 08.11.2026 Observer
Jalen Blesa Rio Ave Actif 108 / 118 40% 1 08.11.2026 -
Antonio Sanabria Internacional Actif 139 / 123 40% 2 06.11.2026 -
Jonas Wind Braga Actif 136 / 137 40% 1 04.11.2026 -
Luccas Paraízo Leixões Actif 100 / 114 40% 2 02.11.2026 -
Luis Suárez PSV Actif 165 / 148 40% 6 30.10.2026 -
Vitinho Internacional Actif 134 / 127 40% 5 29.10.2026 -
Isidro Pitta Bragantino Actif 129 / 130 40% 2 29.10.2026 -
Pedro Raul Corinthians Actif 112 / 115 40% 1 29.10.2026 -
Marcos Paulo Juventude Actif 125 / 112 40% 1 27.10.2026 -
Antony Alonso Deportivo Riestra Actif 126 / 121 40% 2 26.10.2026 -
Alfonso Trezza Arouca Actif 111 / 118 40% 3 25.10.2026 -
Jonás Acevedo Instituto Actif 130 / 118 40% 1 25.10.2026 -
Clayson São Paulo Actif 113 / 124 40% 1 24.10.2026 -
Carlos Vinícius Grêmio Actif 127 / 128 40% 1 22.10.2026 -
Alexander Díaz Deportivo Riestra Actif 125 / 124 40% 1 21.10.2026 -
Enzo Avaro Mitre Actif 122 / 117 40% 1 21.10.2026 -
Talles Magno New York City Actif 139 / 134 40% 3 18.10.2026 -
Claudio Spinelli Vasco da Gama Actif 120 / 129 40% 2 17.10.2026 -
Figueiredo Alverca Actif 111 / 133 40% 5 14.10.2026 -
Alexis Vega Famalicao Actif 128 / 135 40% 1 13.10.2026 -
Gabriel Veron Porto Actif 108 / 115 40% 1 12.10.2026 -
Guilherme Houston Dynamo Actif 110 / 130 40% 4 07.10.2026 -
Rony Santos Actif 140 / 129 40% 2 03.10.2026 -
Nicolás Cordero Aldosivi Actif 123 / 110 40% 1 01.10.2026 -
Max Svensson Penafiel Actif 121 / 104 40% 1 29.09.2026 -
Rodrigo Muniz Fulham Actif 152 / 141 40% 3 26.09.2026 -
Fran Navarro Braga Actif 113 / 132 40% 1 26.09.2026 -
Igor Paixão Olympique de Marseille Actif 145 / 149 40% 4 24.09.2026 -
Rafael Navarro St. Louis CITY SC Actif 111 / 118 40% 1 22.09.2026 -
Martín Ojeda Orlando City Actif 142 / 139 40% 1 20.09.2026 -
Denzel Lusitânia Lourosa Actif 89 / 105 40% 1 20.09.2026 -
Juninho Pumas UNAM Actif 118 / 130 40% 2 17.09.2026 -
Welinton Torrão Santa Clara Actif 94 / 100 40% 1 16.09.2026 -
Alan Benfica Actif 134 / 132 40% 1 15.09.2026 -
Geny Sporting CP Actif 154 / 142 40% 1 15.09.2026 -
Adson Vasco da Gama Actif 122 / 124 40% 1 11.09.2026 -
Emersonn Ipswich Town Actif 128 / 121 40% 1 11.09.2026 -
Gustavo Pereira Oliveirense Actif 104 / 82 40% 1 08.09.2026 -
Ramiro Ruiz Rodríguez Atlético Tucumán Actif 117 / 113 40% 1 06.09.2026 -
André Clovis Chaves Actif 102 / 129 40% 1 02.09.2026 -
Mateo Cassierra Atlético Mineiro Actif 133 / 141 40% 1 26.08.2026 -
André Silva Porto Actif 124 / 133 40% 1 21.08.2026 -
Luis Amarilla Cerro Porteno Actif 128 / 122 40% 2 16.08.2026 -
Gustavo Silva Vitoria Guimaraes Actif 113 / 126 40% 1 15.08.2026 -
Francisco Petrasso Rio Ave Actif 106 / 121 40% 1 08.08.2026 -
Beraldo Paris Saint-Germain Actif 140 / 158 40% 1 07.08.2026 -
Raul Gustavo New York City Actif 125 / 118 40% 1 07.08.2026 -
Igor Jesus Los Angeles Football Club Actif 134 / 126 40% 1 06.08.2026 -
Víctor Gómez Braga Actif 126 / 139 40% 1 06.08.2026 -
Pedro Lima Sporting CP Actif 121 / 115 40% 1 05.08.2026 -
Gabriel Martinelli Arsenal Actif 158 / 148 40% 1 01.08.2026 -